sensor_id;sensor_type;location;lat;lon;timestamp;pressure;altitude;pressure_sealevel;temperature
15607;BMP180;7865;50.918;4.510;2023-03-11T00:01:59;100250.00;;;0.10
15607;BMP180;7865;50.918;4.510;2023-03-11T00:07:02;100253.00;;;0.10
15607;BMP180;7865;50.918;4.510;2023-03-11T00:12:06;100253.00;;;0.00
15607;BMP180;7865;50.918;4.510;2023-03-11T00:17:08;100265.00;;;0.10
15607;BMP180;7865;50.918;4.510;2023-03-11T00:22:10;100262.00;;;0.10
15607;BMP180;7865;50.918;4.510;2023-03-11T00:27:12;100267.00;;;0.10
15607;BMP180;7865;50.918;4.510;2023-03-11T00:32:14;100266.00;;;0.10
15607;BMP180;7865;50.918;4.510;2023-03-11T00:37:16;100288.00;;;0.10
15607;BMP180;7865;50.918;4.510;2023-03-11T00:42:21;100299.00;;;0.00
15607;BMP180;7865;50.918;4.510;2023-03-11T00:47:26;100283.00;;;0.00
15607;BMP180;7865;50.918;4.510;2023-03-11T00:52:28;100290.00;;;-0.10
15607;BMP180;7865;50.918;4.510;2023-03-11T00:57:30;100287.00;;;-0.30
15607;BMP180;7865;50.918;4.510;2023-03-11T01:02:33;100282.00;;;-0.40
15607;BMP180;7865;50.918;4.510;2023-03-11T01:07:36;100288.00;;;-0.50
15607;BMP180;7865;50.918;4.510;2023-03-11T01:12:38;100300.00;;;-0.50
15607;BMP180;7865;50.918;4.510;2023-03-11T01:17:40;100304.00;;;-0.50
15607;BMP180;7865;50.918;4.510;2023-03-11T01:22:43;100297.00;;;-0.50
15607;BMP180;7865;50.918;4.510;2023-03-11T01:27:46;100290.00;;;-0.60
15607;BMP180;7865;50.918;4.510;2023-03-11T01:32:48;100296.00;;;-0.60
15607;BMP180;7865;50.918;4.510;2023-03-11T01:37:50;100302.00;;;-0.70
15607;BMP180;7865;50.918;4.510;2023-03-11T01:42:53;100300.00;;;-0.70
15607;BMP180;7865;50.918;4.510;2023-03-11T01:47:58;100314.00;;;-0.60
15607;BMP180;7865;50.918;4.510;2023-03-11T01:53:02;100320.00;;;-0.40
15607;BMP180;7865;50.918;4.510;2023-03-11T01:58:08;100325.00;;;-0.30
15607;BMP180;7865;50.918;4.510;2023-03-11T02:03:32;100331.00;;;-0.10
15607;BMP180;7865;50.918;4.510;2023-03-11T02:08:34;100335.00;;;0.00
15607;BMP180;7865;50.918;4.510;2023-03-11T02:13:39;100318.00;;;0.00
15607;BMP180;7865;50.918;4.510;2023-03-11T02:18:43;100306.00;;;0.10
15607;BMP180;7865;50.918;4.510;2023-03-11T02:23:52;100298.00;;;0.20
15607;BMP180;7865;50.918;4.510;2023-03-11T02:28:57;100290.00;;;0.10
15607;BMP180;7865;50.918;4.510;2023-03-11T02:34:01;100287.00;;;0.10
15607;BMP180;7865;50.918;4.510;2023-03-11T02:39:06;100292.00;;;0.10
15607;BMP180;7865;50.918;4.510;2023-03-11T02:44:12;100297.00;;;0.00
15607;BMP180;7865;50.918;4.510;2023-03-11T02:49:17;100313.00;;;0.00
15607;BMP180;7865;50.918;4.510;2023-03-11T02:54:19;100312.00;;;-0.20
15607;BMP180;7865;50.918;4.510;2023-03-11T02:59:21;100319.00;;;-0.40
15607;BMP180;7865;50.918;4.510;2023-03-11T03:04:23;100321.00;;;-0.50
15607;BMP180;7865;50.918;4.510;2023-03-11T03:09:26;100331.00;;;-0.60
15607;BMP180;7865;50.918;4.510;2023-03-11T03:14:29;100331.00;;;-0.60
15607;BMP180;7865;50.918;4.510;2023-03-11T03:19:32;100339.00;;;-0.70
15607;BMP180;7865;50.918;4.510;2023-03-11T03:24:34;100318.00;;;-0.70
15607;BMP180;7865;50.918;4.510;2023-03-11T03:29:36;100319.00;;;-0.70
15607;BMP180;7865;50.918;4.510;2023-03-11T03:34:39;100323.00;;;-0.60
15607;BMP180;7865;50.918;4.510;2023-03-11T03:39:42;100333.00;;;-0.40
15607;BMP180;7865;50.918;4.510;2023-03-11T03:44:46;100323.00;;;-0.30
15607;BMP180;7865;50.918;4.510;2023-03-11T03:49:48;100336.00;;;-0.30
15607;BMP180;7865;50.918;4.510;2023-03-11T03:54:50;100335.00;;;-0.30
15607;BMP180;7865;50.918;4.510;2023-03-11T03:59:52;100340.00;;;-0.20
15607;BMP180;7865;50.918;4.510;2023-03-11T04:04:54;100358.00;;;-0.20
15607;BMP180;7865;50.918;4.510;2023-03-11T04:09:57;100355.00;;;-0.40
15607;BMP180;7865;50.918;4.510;2023-03-11T04:14:59;100343.00;;;-0.50
15607;BMP180;7865;50.918;4.510;2023-03-11T04:20:03;100356.00;;;-0.70
15607;BMP180;7865;50.918;4.510;2023-03-11T04:25:08;100355.00;;;-0.70
15607;BMP180;7865;50.918;4.510;2023-03-11T04:30:12;100358.00;;;-0.90
15607;BMP180;7865;50.918;4.510;2023-03-11T04:35:15;100363.00;;;-1.00
15607;BMP180;7865;50.918;4.510;2023-03-11T04:40:18;100373.00;;;-1.00
15607;BMP180;7865;50.918;4.510;2023-03-11T04:45:21;100360.00;;;-1.10
15607;BMP180;7865;50.918;4.510;2023-03-11T04:50:26;100364.00;;;-1.10
15607;BMP180;7865;50.918;4.510;2023-03-11T04:55:28;100367.00;;;-1.10
15607;BMP180;7865;50.918;4.510;2023-03-11T05:00:31;100361.00;;;-1.20
15607;BMP180;7865;50.918;4.510;2023-03-11T05:05:41;100367.00;;;-1.20
15607;BMP180;7865;50.918;4.510;2023-03-11T05:10:44;100374.00;;;-1.30
15607;BMP180;7865;50.918;4.510;2023-03-11T05:15:46;100366.00;;;-1.20
15607;BMP180;7865;50.918;4.510;2023-03-11T05:20:49;100362.00;;;-1.10
15607;BMP180;7865;50.918;4.510;2023-03-11T05:25:55;100369.00;;;-1.10
15607;BMP180;7865;50.918;4.510;2023-03-11T05:30:58;100367.00;;;-1.20
15607;BMP180;7865;50.918;4.510;2023-03-11T05:36:06;100382.00;;;-1.20
15607;BMP180;7865;50.918;4.510;2023-03-11T05:41:10;100389.00;;;-1.20
15607;BMP180;7865;50.918;4.510;2023-03-11T05:46:15;100378.00;;;-1.30
15607;BMP180;7865;50.918;4.510;2023-03-11T05:51:18;100397.00;;;-1.20
15607;BMP180;7865;50.918;4.510;2023-03-11T05:56:21;100388.00;;;-1.20
15607;BMP180;7865;50.918;4.510;2023-03-11T06:01:26;100411.00;;;-1.20
15607;BMP180;7865;50.918;4.510;2023-03-11T06:06:29;100423.00;;;-1.20
15607;BMP180;7865;50.918;4.510;2023-03-11T06:11:31;100431.00;;;-1.10
15607;BMP180;7865;50.918;4.510;2023-03-11T06:16:33;100432.00;;;-1.00
15607;BMP180;7865;50.918;4.510;2023-03-11T06:21:37;100442.00;;;-0.90
15607;BMP180;7865;50.918;4.510;2023-03-11T06:26:39;100439.00;;;-0.90
15607;BMP180;7865;50.918;4.510;2023-03-11T06:31:42;100459.00;;;-0.90
15607;BMP180;7865;50.918;4.510;2023-03-11T06:36:46;100466.00;;;-0.80
15607;BMP180;7865;50.918;4.510;2023-03-11T06:41:48;100466.00;;;-0.60
15607;BMP180;7865;50.918;4.510;2023-03-11T06:46:51;100465.00;;;-0.40
15607;BMP180;7865;50.918;4.510;2023-03-11T06:51:53;100473.00;;;-0.30
15607;BMP180;7865;50.918;4.510;2023-03-11T06:56:55;100475.00;;;-0.10
15607;BMP180;7865;50.918;4.510;2023-03-11T07:01:57;100473.00;;;0.10
15607;BMP180;7865;50.918;4.510;2023-03-11T07:06:59;100472.00;;;0.40
15607;BMP180;7865;50.918;4.510;2023-03-11T07:12:02;100481.00;;;0.50
15607;BMP180;7865;50.918;4.510;2023-03-11T07:17:09;100494.00;;;0.80
15607;BMP180;7865;50.918;4.510;2023-03-11T07:22:18;100483.00;;;1.10
15607;BMP180;7865;50.918;4.510;2023-03-11T07:27:20;100483.00;;;1.40
15607;BMP180;7865;50.918;4.510;2023-03-11T07:32:23;100489.00;;;1.70
15607;BMP180;7865;50.918;4.510;2023-03-11T07:37:25;100486.00;;;2.00
15607;BMP180;7865;50.918;4.510;2023-03-11T07:42:27;100490.00;;;2.30
15607;BMP180;7865;50.918;4.510;2023-03-11T07:47:29;100485.00;;;2.50
15607;BMP180;7865;50.918;4.510;2023-03-11T07:52:32;100490.00;;;2.80
15607;BMP180;7865;50.918;4.510;2023-03-11T07:57:33;100494.00;;;3.10
15607;BMP180;7865;50.918;4.510;2023-03-11T08:02:36;100476.00;;;3.10
15607;BMP180;7865;50.918;4.510;2023-03-11T08:07:38;100485.00;;;3.30
15607;BMP180;7865;50.918;4.510;2023-03-11T08:12:40;100486.00;;;3.60
15607;BMP180;7865;50.918;4.510;2023-03-11T08:17:42;100489.00;;;4.00
15607;BMP180;7865;50.918;4.510;2023-03-11T08:22:44;100504.00;;;4.40
15607;BMP180;7865;50.918;4.510;2023-03-11T08:27:58;100520.00;;;4.90
15607;BMP180;7865;50.918;4.510;2023-03-11T08:33:01;100523.00;;;5.20
15607;BMP180;7865;50.918;4.510;2023-03-11T08:38:03;100540.00;;;5.60
15607;BMP180;7865;50.918;4.510;2023-03-11T08:43:05;100544.00;;;6.10
15607;BMP180;7865;50.918;4.510;2023-03-11T08:48:10;100552.00;;;6.30
15607;BMP180;7865;50.918;4.510;2023-03-11T08:53:12;100549.00;;;6.50
15607;BMP180;7865;50.918;4.510;2023-03-11T08:58:15;100562.00;;;6.70
15607;BMP180;7865;50.918;4.510;2023-03-11T09:03:17;100564.00;;;6.90
15607;BMP180;7865;50.918;4.510;2023-03-11T09:08:19;100565.00;;;7.20
15607;BMP180;7865;50.918;4.510;2023-03-11T09:13:21;100572.00;;;7.50
15607;BMP180;7865;50.918;4.510;2023-03-11T09:18:23;100573.00;;;8.00
15607;BMP180;7865;50.918;4.510;2023-03-11T09:23:25;100581.00;;;8.50
15607;BMP180;7865;50.918;4.510;2023-03-11T09:28:28;100591.00;;;8.80
15607;BMP180;7865;50.918;4.510;2023-03-11T09:33:30;100598.00;;;9.00
15607;BMP180;7865;50.918;4.510;2023-03-11T09:38:32;100591.00;;;9.30
15607;BMP180;7865;50.918;4.510;2023-03-11T09:43:53;100598.00;;;9.60
15607;BMP180;7865;50.918;4.510;2023-03-11T09:49:12;100602.00;;;9.80
15607;BMP180;7865;50.918;4.510;2023-03-11T09:54:16;100609.00;;;10.40
15607;BMP180;7865;50.918;4.510;2023-03-11T09:59:29;100607.00;;;10.70
15607;BMP180;7865;50.918;4.510;2023-03-11T10:04:39;100604.00;;;10.30
15607;BMP180;7865;50.918;4.510;2023-03-11T10:09:50;100628.00;;;9.70
15607;BMP180;7865;50.918;4.510;2023-03-11T10:26:11;100636.00;;;11.20
15607;BMP180;7865;50.918;4.510;2023-03-11T10:36:37;100640.00;;;12.80
15607;BMP180;7865;50.918;4.510;2023-03-11T10:41:44;100633.00;;;12.00
15607;BMP180;7865;50.918;4.510;2023-03-11T10:46:47;100621.00;;;11.60
15607;BMP180;7865;50.918;4.510;2023-03-11T10:51:51;100617.00;;;11.10
15607;BMP180;7865;50.918;4.510;2023-03-11T10:56:56;100621.00;;;11.20
15607;BMP180;7865;50.918;4.510;2023-03-11T11:02:01;100624.00;;;10.80
15607;BMP180;7865;50.918;4.510;2023-03-11T11:12:22;100624.00;;;11.00
15607;BMP180;7865;50.918;4.510;2023-03-11T11:17:28;100629.00;;;10.90
15607;BMP180;7865;50.918;4.510;2023-03-11T11:22:31;100620.00;;;11.00
15607;BMP180;7865;50.918;4.510;2023-03-11T11:27:33;100626.00;;;11.50
15607;BMP180;7865;50.918;4.510;2023-03-11T11:32:36;100620.00;;;11.30
15607;BMP180;7865;50.918;4.510;2023-03-11T11:37:41;100620.00;;;11.30
15607;BMP180;7865;50.918;4.510;2023-03-11T11:42:47;100618.00;;;11.40
15607;BMP180;7865;50.918;4.510;2023-03-11T11:47:54;100625.00;;;12.20
15607;BMP180;7865;50.918;4.510;2023-03-11T11:53:07;100622.00;;;12.20
15607;BMP180;7865;50.918;4.510;2023-03-11T11:58:12;100608.00;;;11.80
15607;BMP180;7865;50.918;4.510;2023-03-11T12:14:19;100599.00;;;12.90
15607;BMP180;7865;50.918;4.510;2023-03-11T12:29:48;100591.00;;;11.90
15607;BMP180;7865;50.918;4.510;2023-03-11T12:34:52;100589.00;;;12.00
15607;BMP180;7865;50.918;4.510;2023-03-11T12:39:54;100581.00;;;11.90
15607;BMP180;7865;50.918;4.510;2023-03-11T12:50:40;100568.00;;;12.50
15607;BMP180;7865;50.918;4.510;2023-03-11T13:01:50;100564.00;;;12.50
15607;BMP180;7865;50.918;4.510;2023-03-11T13:18:03;100551.00;;;13.30
15607;BMP180;7865;50.918;4.510;2023-03-11T13:23:22;100552.00;;;13.60
15607;BMP180;7865;50.918;4.510;2023-03-11T13:28:39;100556.00;;;12.60
15607;BMP180;7865;50.918;4.510;2023-03-11T13:33:50;100542.00;;;13.60
15607;BMP180;7865;50.918;4.510;2023-03-11T13:38:59;100546.00;;;14.90
15607;BMP180;7865;50.918;4.510;2023-03-11T13:55:06;100504.00;;;18.60
15607;BMP180;7865;50.918;4.510;2023-03-11T14:00:15;100494.00;;;20.20
15607;BMP180;7865;50.918;4.510;2023-03-11T14:05:24;100495.00;;;19.10
15607;BMP180;7865;50.918;4.510;2023-03-11T14:10:29;100485.00;;;19.80
15607;BMP180;7865;50.918;4.510;2023-03-11T14:15:39;100509.00;;;18.60
15607;BMP180;7865;50.918;4.510;2023-03-11T14:20:46;100520.00;;;18.50
15607;BMP180;7865;50.918;4.510;2023-03-11T14:25:57;100510.00;;;18.00
15607;BMP180;7865;50.918;4.510;2023-03-11T14:31:01;100511.00;;;16.30
15607;BMP180;7865;50.918;4.510;2023-03-11T14:36:04;100507.00;;;17.20
15607;BMP180;7865;50.918;4.510;2023-03-11T14:41:12;100502.00;;;18.70
15607;BMP180;7865;50.918;4.510;2023-03-11T14:46:23;100471.00;;;20.70
15607;BMP180;7865;50.918;4.510;2023-03-11T14:51:29;100505.00;;;19.90
15607;BMP180;7865;50.918;4.510;2023-03-11T14:56:36;100513.00;;;18.20
15607;BMP180;7865;50.918;4.510;2023-03-11T15:01:42;100515.00;;;17.70
15607;BMP180;7865;50.918;4.510;2023-03-11T15:06:45;100540.00;;;16.40
15607;BMP180;7865;50.918;4.510;2023-03-11T15:22:37;100533.00;;;14.80
15607;BMP180;7865;50.918;4.510;2023-03-11T15:27:39;100567.00;;;14.70
15607;BMP180;7865;50.918;4.510;2023-03-11T15:32:43;100556.00;;;13.50
15607;BMP180;7865;50.918;4.510;2023-03-11T15:37:48;100559.00;;;14.40
15607;BMP180;7865;50.918;4.510;2023-03-11T15:43:27;100545.00;;;14.90
15607;BMP180;7865;50.918;4.510;2023-03-11T15:48:30;100559.00;;;13.30
15607;BMP180;7865;50.918;4.510;2023-03-11T15:53:32;100558.00;;;11.60
15607;BMP180;7865;50.918;4.510;2023-03-11T15:58:35;100562.00;;;10.30
15607;BMP180;7865;50.918;4.510;2023-03-11T16:03:37;100560.00;;;9.80
15607;BMP180;7865;50.918;4.510;2023-03-11T16:08:40;100569.00;;;9.60
15607;BMP180;7865;50.918;4.510;2023-03-11T16:13:42;100560.00;;;9.30
15607;BMP180;7865;50.918;4.510;2023-03-11T16:18:44;100560.00;;;8.90
15607;BMP180;7865;50.918;4.510;2023-03-11T16:23:47;100561.00;;;8.50
15607;BMP180;7865;50.918;4.510;2023-03-11T16:28:53;100553.00;;;8.30
15607;BMP180;7865;50.918;4.510;2023-03-11T16:33:55;100559.00;;;8.10
15607;BMP180;7865;50.918;4.510;2023-03-11T16:38:56;100546.00;;;7.70
15607;BMP180;7865;50.918;4.510;2023-03-11T16:43:58;100552.00;;;7.50
15607;BMP180;7865;50.918;4.510;2023-03-11T16:49:00;100547.00;;;7.40
15607;BMP180;7865;50.918;4.510;2023-03-11T16:54:02;100544.00;;;7.20
15607;BMP180;7865;50.918;4.510;2023-03-11T16:59:05;100556.00;;;7.10
15607;BMP180;7865;50.918;4.510;2023-03-11T17:04:07;100557.00;;;6.90
15607;BMP180;7865;50.918;4.510;2023-03-11T17:09:09;100560.00;;;6.70
15607;BMP180;7865;50.918;4.510;2023-03-11T17:14:11;100562.00;;;6.50
15607;BMP180;7865;50.918;4.510;2023-03-11T17:19:17;100568.00;;;6.40
15607;BMP180;7865;50.918;4.510;2023-03-11T17:24:19;100574.00;;;6.20
15607;BMP180;7865;50.918;4.510;2023-03-11T17:29:22;100575.00;;;5.90
15607;BMP180;7865;50.918;4.510;2023-03-11T17:34:23;100571.00;;;5.80
15607;BMP180;7865;50.918;4.510;2023-03-11T17:39:25;100576.00;;;5.70
15607;BMP180;7865;50.918;4.510;2023-03-11T17:44:27;100594.00;;;5.60
15607;BMP180;7865;50.918;4.510;2023-03-11T17:49:38;100599.00;;;5.50
15607;BMP180;7865;50.918;4.510;2023-03-11T17:54:40;100604.00;;;5.50
15607;BMP180;7865;50.918;4.510;2023-03-11T17:59:42;100602.00;;;5.50
15607;BMP180;7865;50.918;4.510;2023-03-11T18:04:49;100606.00;;;5.40
15607;BMP180;7865;50.918;4.510;2023-03-11T18:09:52;100601.00;;;5.30
15607;BMP180;7865;50.918;4.510;2023-03-11T18:14:56;100608.00;;;5.20
15607;BMP180;7865;50.918;4.510;2023-03-11T18:19:57;100610.00;;;5.10
15607;BMP180;7865;50.918;4.510;2023-03-11T18:25:00;100612.00;;;5.00
15607;BMP180;7865;50.918;4.510;2023-03-11T18:30:03;100607.00;;;4.90
15607;BMP180;7865;50.918;4.510;2023-03-11T18:35:06;100613.00;;;4.70
15607;BMP180;7865;50.918;4.510;2023-03-11T18:40:10;100612.00;;;4.50
15607;BMP180;7865;50.918;4.510;2023-03-11T18:45:12;100611.00;;;4.30
15607;BMP180;7865;50.918;4.510;2023-03-11T18:50:17;100627.00;;;4.30
15607;BMP180;7865;50.918;4.510;2023-03-11T18:55:19;100618.00;;;4.20
15607;BMP180;7865;50.918;4.510;2023-03-11T19:00:21;100621.00;;;4.10
15607;BMP180;7865;50.918;4.510;2023-03-11T19:05:24;100620.00;;;4.00
15607;BMP180;7865;50.918;4.510;2023-03-11T19:10:26;100618.00;;;3.90
15607;BMP180;7865;50.918;4.510;2023-03-11T19:15:28;100610.00;;;3.70
15607;BMP180;7865;50.918;4.510;2023-03-11T19:20:30;100615.00;;;3.60
15607;BMP180;7865;50.918;4.510;2023-03-11T19:25:33;100617.00;;;3.40
15607;BMP180;7865;50.918;4.510;2023-03-11T19:30:34;100616.00;;;3.30
15607;BMP180;7865;50.918;4.510;2023-03-11T19:35:37;100612.00;;;3.20
15607;BMP180;7865;50.918;4.510;2023-03-11T19:40:39;100615.00;;;3.00
15607;BMP180;7865;50.918;4.510;2023-03-11T19:45:41;100616.00;;;3.00
15607;BMP180;7865;50.918;4.510;2023-03-11T19:50:43;100607.00;;;3.10
15607;BMP180;7865;50.918;4.510;2023-03-11T19:55:49;100612.00;;;3.10
15607;BMP180;7865;50.918;4.510;2023-03-11T20:00:51;100625.00;;;3.30
15607;BMP180;7865;50.918;4.510;2023-03-11T20:05:55;100612.00;;;3.30
15607;BMP180;7865;50.918;4.510;2023-03-11T20:10:59;100594.00;;;3.30
15607;BMP180;7865;50.918;4.510;2023-03-11T20:16:11;100605.00;;;3.30
15607;BMP180;7865;50.918;4.510;2023-03-11T20:21:13;100610.00;;;3.40
15607;BMP180;7865;50.918;4.510;2023-03-11T20:26:16;100620.00;;;3.50
15607;BMP180;7865;50.918;4.510;2023-03-11T20:31:21;100614.00;;;3.50
15607;BMP180;7865;50.918;4.510;2023-03-11T20:36:29;100620.00;;;3.40
15607;BMP180;7865;50.918;4.510;2023-03-11T20:41:37;100618.00;;;3.30
15607;BMP180;7865;50.918;4.510;2023-03-11T20:46:40;100616.00;;;3.20
15607;BMP180;7865;50.918;4.510;2023-03-11T20:51:42;100609.00;;;3.10
15607;BMP180;7865;50.918;4.510;2023-03-11T20:56:48;100599.00;;;3.10
15607;BMP180;7865;50.918;4.510;2023-03-11T21:01:51;100599.00;;;3.10
15607;BMP180;7865;50.918;4.510;2023-03-11T21:06:54;100608.00;;;3.20
15607;BMP180;7865;50.918;4.510;2023-03-11T21:11:58;100601.00;;;3.20
15607;BMP180;7865;50.918;4.510;2023-03-11T21:17:01;100600.00;;;3.30
15607;BMP180;7865;50.918;4.510;2023-03-11T21:22:03;100596.00;;;3.30
15607;BMP180;7865;50.918;4.510;2023-03-11T21:27:06;100591.00;;;3.30
15607;BMP180;7865;50.918;4.510;2023-03-11T21:32:08;100593.00;;;3.40
15607;BMP180;7865;50.918;4.510;2023-03-11T21:37:10;100602.00;;;3.50
15607;BMP180;7865;50.918;4.510;2023-03-11T21:42:12;100588.00;;;3.60
15607;BMP180;7865;50.918;4.510;2023-03-11T21:47:14;100597.00;;;3.70
15607;BMP180;7865;50.918;4.510;2023-03-11T21:52:16;100591.00;;;3.80
15607;BMP180;7865;50.918;4.510;2023-03-11T21:57:19;100596.00;;;3.90
15607;BMP180;7865;50.918;4.510;2023-03-11T22:02:21;100591.00;;;3.90
15607;BMP180;7865;50.918;4.510;2023-03-11T22:07:23;100593.00;;;3.90
15607;BMP180;7865;50.918;4.510;2023-03-11T22:12:25;100590.00;;;3.90
15607;BMP180;7865;50.918;4.510;2023-03-11T22:17:27;100582.00;;;3.90
15607;BMP180;7865;50.918;4.510;2023-03-11T22:22:30;100582.00;;;3.90
15607;BMP180;7865;50.918;4.510;2023-03-11T22:27:32;100571.00;;;3.90
15607;BMP180;7865;50.918;4.510;2023-03-11T22:32:34;100565.00;;;3.80
15607;BMP180;7865;50.918;4.510;2023-03-11T22:37:37;100578.00;;;3.70
15607;BMP180;7865;50.918;4.510;2023-03-11T22:42:39;100567.00;;;3.70
15607;BMP180;7865;50.918;4.510;2023-03-11T22:47:41;100575.00;;;3.70
15607;BMP180;7865;50.918;4.510;2023-03-11T22:52:43;100573.00;;;3.70
15607;BMP180;7865;50.918;4.510;2023-03-11T22:57:45;100571.00;;;3.80
15607;BMP180;7865;50.918;4.510;2023-03-11T23:02:52;100571.00;;;3.80
15607;BMP180;7865;50.918;4.510;2023-03-11T23:07:54;100564.00;;;3.80
15607;BMP180;7865;50.918;4.510;2023-03-11T23:12:56;100565.00;;;3.80
15607;BMP180;7865;50.918;4.510;2023-03-11T23:17:58;100563.00;;;3.80
15607;BMP180;7865;50.918;4.510;2023-03-11T23:23:00;100555.00;;;3.80
15607;BMP180;7865;50.918;4.510;2023-03-11T23:28:03;100543.00;;;3.80
15607;BMP180;7865;50.918;4.510;2023-03-11T23:33:06;100528.00;;;3.90
15607;BMP180;7865;50.918;4.510;2023-03-11T23:38:09;100524.00;;;3.90
15607;BMP180;7865;50.918;4.510;2023-03-11T23:43:11;100520.00;;;3.90
15607;BMP180;7865;50.918;4.510;2023-03-11T23:48:13;100517.00;;;3.90
15607;BMP180;7865;50.918;4.510;2023-03-11T23:53:17;100518.00;;;3.90
15607;BMP180;7865;50.918;4.510;2023-03-11T23:58:22;100529.00;;;3.90
